createdAt,value
2017-09-29T00:00:40.424Z,0.00
2017-09-29T00:01:40.436Z,0.00
2017-09-29T00:02:40.438Z,0.00
2017-09-29T00:03:40.440Z,0.00
2017-09-29T00:04:40.445Z,0.00
2017-09-29T00:05:40.454Z,0.00
2017-09-29T00:06:40.453Z,0.00
2017-09-29T00:07:40.463Z,0.00
2017-09-29T00:08:40.470Z,0.00
2017-09-29T00:09:40.475Z,0.00
2017-09-29T00:10:40.484Z,0.00
2017-09-29T00:11:40.485Z,0.00
2017-09-29T00:12:40.488Z,0.00
2017-09-29T00:13:40.494Z,0.00
2017-09-29T00:14:40.504Z,0.00
2017-09-29T00:15:40.506Z,0.00
2017-09-29T00:16:40.512Z,0.00
2017-09-29T00:17:40.517Z,0.00
2017-09-29T00:18:40.521Z,0.00
2017-09-29T00:19:40.522Z,0.00
2017-09-29T00:20:40.538Z,0.00
2017-09-29T00:21:40.539Z,0.00
2017-09-29T00:22:40.547Z,0.00
2017-09-29T00:23:40.544Z,0.00
2017-09-29T00:24:40.552Z,0.00
2017-09-29T00:25:40.552Z,0.00
2017-09-29T00:26:40.562Z,0.00
2017-09-29T00:27:40.568Z,0.00
2017-09-29T00:28:40.571Z,0.00
2017-09-29T00:29:40.578Z,0.00
2017-09-29T00:30:40.593Z,0.00
2017-09-29T00:31:40.595Z,0.00
2017-09-29T00:32:40.599Z,0.00
2017-09-29T00:33:40.602Z,0.00
2017-09-29T00:34:40.602Z,0.00
2017-09-29T00:35:40.606Z,0.00
2017-09-29T00:36:40.616Z,0.00
2017-09-29T00:37:40.629Z,0.00
2017-09-29T00:38:40.633Z,0.00
2017-09-29T00:39:40.636Z,0.00
2017-09-29T00:40:40.634Z,0.00
2017-09-29T00:41:40.641Z,0.00
2017-09-29T00:42:40.649Z,0.00
2017-09-29T00:43:40.660Z,0.00
2017-09-29T00:44:40.655Z,0.00
2017-09-29T00:45:40.661Z,0.00
2017-09-29T00:46:40.665Z,0.00
2017-09-29T00:47:40.689Z,0.00
2017-09-29T00:48:40.676Z,0.00
2017-09-29T00:49:40.685Z,0.00
2017-09-29T00:50:40.687Z,0.00
2017-09-29T00:51:40.695Z,0.00
2017-09-29T00:52:40.703Z,0.00
2017-09-29T00:53:40.703Z,0.00
2017-09-29T00:54:40.747Z,0.00
2017-09-29T00:55:40.722Z,0.00
2017-09-29T00:56:40.720Z,0.00
2017-09-29T00:57:40.733Z,0.00
2017-09-29T00:58:40.727Z,0.00
2017-09-29T00:59:40.741Z,0.00
2017-09-29T01:00:40.748Z,0.00
2017-09-29T01:01:40.745Z,0.00
2017-09-29T01:02:40.749Z,0.00
2017-09-29T01:03:40.755Z,0.00
2017-09-29T01:04:40.770Z,0.00
2017-09-29T01:05:40.767Z,0.00
2017-09-29T01:06:40.775Z,0.00
2017-09-29T01:07:40.777Z,0.00
2017-09-29T01:08:40.782Z,0.00
2017-09-29T01:09:40.795Z,0.00
2017-09-29T01:10:40.798Z,0.00
2017-09-29T01:11:40.801Z,0.00
2017-09-29T01:12:40.807Z,0.00
2017-09-29T01:13:40.806Z,0.00
2017-09-29T01:14:40.816Z,0.00
2017-09-29T01:15:40.823Z,0.00
2017-09-29T01:16:40.826Z,0.00
2017-09-29T01:17:40.825Z,0.00
2017-09-29T01:18:40.835Z,0.00
2017-09-29T01:19:40.843Z,0.00
2017-09-29T01:20:40.841Z,0.00
2017-09-29T01:21:40.851Z,0.00
2017-09-29T01:22:40.853Z,0.00
2017-09-29T01:23:40.861Z,0.00
2017-09-29T01:24:40.865Z,0.00
2017-09-29T01:25:40.868Z,0.00
2017-09-29T01:26:40.876Z,0.00
2017-09-29T01:27:40.883Z,0.00
2017-09-29T01:28:40.884Z,0.00
2017-09-29T01:29:40.891Z,0.00
2017-09-29T01:30:40.894Z,0.00
2017-09-29T01:31:40.901Z,0.00
2017-09-29T01:32:40.905Z,0.00
2017-09-29T01:33:40.910Z,0.00
2017-09-29T01:34:40.933Z,0.00
2017-09-29T01:35:40.928Z,0.00
2017-09-29T01:36:40.930Z,0.00
2017-09-29T01:37:40.934Z,0.00
2017-09-29T01:38:40.935Z,0.00
2017-09-29T01:39:40.943Z,0.00
2017-09-29T01:40:40.949Z,0.00
2017-09-29T01:41:40.959Z,0.00
2017-09-29T01:42:40.962Z,0.00
2017-09-29T01:43:40.959Z,0.00
2017-09-29T01:44:40.967Z,0.00
2017-09-29T01:45:40.976Z,0.00
2017-09-29T01:46:40.977Z,0.00
2017-09-29T01:47:40.984Z,0.00
2017-09-29T01:48:40.993Z,0.00
2017-09-29T01:49:40.996Z,0.00
2017-09-29T01:50:41.008Z,0.00
2017-09-29T01:51:41.009Z,0.00
2017-09-29T01:52:41.004Z,0.00
2017-09-29T01:53:41.015Z,0.00
2017-09-29T01:54:41.016Z,0.00
2017-09-29T01:55:41.027Z,0.00
2017-09-29T01:56:41.032Z,0.00
2017-09-29T01:57:41.032Z,0.00
2017-09-29T01:58:41.040Z,0.00
2017-09-29T01:59:41.045Z,0.00
2017-09-29T02:00:41.050Z,0.00
2017-09-29T02:01:41.057Z,0.00
2017-09-29T02:02:41.058Z,0.00
2017-09-29T02:03:41.066Z,0.00
2017-09-29T02:04:41.074Z,0.00
2017-09-29T02:05:41.082Z,0.00
2017-09-29T02:06:41.084Z,0.00
2017-09-29T02:07:41.083Z,0.00
2017-09-29T02:08:41.090Z,0.00
2017-09-29T02:09:41.101Z,0.00
2017-09-29T02:10:41.100Z,0.00
2017-09-29T02:11:41.104Z,0.00
2017-09-29T02:12:41.117Z,0.00
2017-09-29T02:13:41.116Z,0.00
2017-09-29T02:14:41.119Z,0.00
2017-09-29T02:15:41.129Z,0.00
2017-09-29T02:16:41.132Z,0.00
2017-09-29T02:17:41.135Z,0.00
2017-09-29T02:18:41.141Z,0.00
2017-09-29T02:19:41.148Z,0.00
2017-09-29T02:20:41.152Z,0.00
2017-09-29T02:21:41.155Z,0.00
2017-09-29T02:22:41.165Z,0.00
2017-09-29T02:23:41.174Z,0.00
2017-09-29T02:24:41.174Z,0.00
2017-09-29T02:25:41.181Z,0.00
2017-09-29T02:26:41.182Z,0.00
2017-09-29T02:27:41.192Z,0.00
2017-09-29T02:28:41.190Z,0.00
2017-09-29T02:29:41.199Z,0.00
2017-09-29T02:30:41.205Z,0.00
2017-09-29T02:31:41.230Z,0.00
2017-09-29T02:32:41.220Z,0.00
2017-09-29T02:33:41.218Z,0.00
2017-09-29T02:34:41.223Z,0.00
2017-09-29T02:35:41.231Z,0.00
2017-09-29T02:36:41.232Z,0.00
2017-09-29T02:37:41.243Z,0.00
2017-09-29T02:38:41.242Z,0.00
2017-09-29T02:39:41.250Z,0.00
2017-09-29T02:40:41.256Z,0.00
2017-09-29T02:41:41.259Z,0.00
2017-09-29T02:42:41.262Z,0.00
2017-09-29T02:43:41.276Z,0.00
2017-09-29T02:44:41.274Z,0.00
2017-09-29T02:45:41.284Z,0.00
2017-09-29T02:46:41.286Z,0.00
2017-09-29T02:47:41.291Z,0.00
2017-09-29T02:48:41.304Z,0.00
2017-09-29T02:49:41.298Z,0.00
2017-09-29T02:50:41.307Z,0.00
2017-09-29T02:51:41.312Z,0.00
2017-09-29T02:52:41.322Z,0.00
2017-09-29T02:53:41.323Z,0.00
2017-09-29T02:54:41.323Z,0.00
2017-09-29T02:55:41.335Z,0.00
2017-09-29T02:56:41.335Z,0.00
2017-09-29T02:57:41.339Z,0.00
2017-09-29T02:58:41.345Z,0.00
2017-09-29T02:59:41.352Z,0.00
2017-09-29T03:00:41.355Z,0.00
2017-09-29T03:01:41.366Z,0.00
2017-09-29T03:02:41.366Z,0.00
2017-09-29T03:03:41.377Z,0.00
2017-09-29T03:04:41.374Z,0.00
2017-09-29T03:05:41.379Z,0.00
2017-09-29T03:06:41.386Z,0.00
2017-09-29T03:07:41.393Z,0.00
2017-09-29T03:08:41.393Z,0.00
2017-09-29T03:09:41.401Z,0.00
2017-09-29T03:10:41.406Z,0.00
2017-09-29T03:11:41.416Z,0.00
2017-09-29T03:12:41.419Z,0.00
2017-09-29T03:13:41.423Z,0.00
2017-09-29T03:14:41.422Z,0.00
2017-09-29T03:15:41.427Z,0.00
2017-09-29T03:16:41.435Z,0.00
2017-09-29T03:17:41.440Z,0.00
2017-09-29T03:18:41.444Z,0.00
2017-09-29T03:19:41.448Z,0.00
2017-09-29T03:20:41.459Z,0.00
2017-09-29T03:21:41.465Z,0.00
2017-09-29T03:22:41.475Z,0.00
2017-09-29T03:23:41.476Z,0.00
2017-09-29T03:24:41.474Z,0.00
2017-09-29T03:25:41.496Z,0.00
2017-09-29T03:26:41.483Z,0.00
2017-09-29T03:27:41.491Z,0.00
2017-09-29T03:28:41.495Z,0.00
2017-09-29T03:29:41.506Z,0.00
2017-09-29T03:30:41.505Z,0.00
2017-09-29T03:31:41.510Z,0.00
2017-09-29T03:32:41.518Z,0.00
2017-09-29T03:33:41.522Z,0.00
2017-09-29T03:34:41.523Z,0.00
2017-09-29T03:35:41.531Z,0.00
2017-09-29T03:36:41.534Z,0.00
2017-09-29T03:37:41.540Z,0.00
2017-09-29T03:38:41.546Z,0.00
2017-09-29T03:39:41.549Z,0.00
2017-09-29T03:40:41.553Z,0.00
2017-09-29T03:41:41.569Z,0.00
2017-09-29T03:42:41.565Z,0.00
2017-09-29T03:43:41.571Z,0.00
2017-09-29T03:44:41.573Z,0.00
2017-09-29T03:45:41.582Z,0.00
2017-09-29T03:46:41.615Z,0.00
2017-09-29T03:47:41.586Z,0.00
2017-09-29T03:48:41.594Z,0.00
2017-09-29T03:49:41.599Z,0.00
2017-09-29T03:50:41.608Z,0.00
2017-09-29T03:51:41.611Z,0.00
2017-09-29T03:52:41.615Z,0.00
2017-09-29T03:53:41.622Z,0.00
2017-09-29T03:54:41.623Z,0.00
2017-09-29T03:55:41.630Z,0.00
2017-09-29T03:56:41.636Z,0.00
2017-09-29T03:57:41.639Z,0.00
2017-09-29T03:58:41.646Z,0.00
2017-09-29T03:59:41.646Z,0.00
2017-09-29T04:00:41.655Z,0.00
2017-09-29T04:01:41.656Z,0.00
2017-09-29T04:02:41.662Z,0.00
2017-09-29T04:03:41.662Z,0.00
2017-09-29T04:04:41.673Z,0.00
2017-09-29T04:05:41.680Z,0.00
2017-09-29T04:06:41.682Z,0.00
2017-09-29T04:07:41.691Z,0.00
2017-09-29T04:08:41.691Z,0.00
2017-09-29T04:09:41.698Z,0.00
2017-09-29T04:10:41.703Z,0.00
2017-09-29T04:11:41.704Z,0.00
2017-09-29T04:12:41.713Z,0.00
2017-09-29T04:13:41.721Z,0.00
2017-09-29T04:14:41.722Z,0.00
2017-09-29T04:15:41.725Z,0.00
2017-09-29T04:16:41.733Z,0.00
2017-09-29T04:17:41.733Z,0.00
2017-09-29T04:18:41.737Z,0.00
2017-09-29T04:19:41.744Z,0.00
2017-09-29T04:20:41.753Z,0.00
2017-09-29T04:21:41.754Z,0.00
2017-09-29T04:22:45.812Z,0.00
2017-09-29T04:23:41.771Z,0.00
2017-09-29T04:24:41.774Z,0.00
2017-09-29T04:25:41.781Z,0.00
2017-09-29T04:26:41.786Z,0.00
2017-09-29T04:29:13.909Z,0.00
2017-09-29T04:30:13.876Z,0.00
2017-09-29T04:31:13.877Z,0.00
2017-09-29T04:32:13.880Z,0.00
2017-09-29T04:33:13.890Z,0.00
2017-09-29T04:34:13.896Z,0.00
2017-09-29T04:35:13.904Z,0.00
2017-09-29T04:36:13.901Z,0.00
2017-09-29T04:37:13.911Z,0.00
2017-09-29T04:38:13.914Z,0.00
2017-09-29T04:39:13.917Z,0.00
2017-09-29T04:40:13.926Z,0.00
2017-09-29T04:41:13.929Z,0.00
2017-09-29T04:42:13.933Z,0.00
2017-09-29T04:43:13.941Z,0.00
2017-09-29T04:44:13.942Z,0.00
2017-09-29T04:45:13.952Z,0.00
2017-09-29T04:46:13.951Z,0.00
2017-09-29T04:47:13.954Z,0.00
2017-09-29T04:48:13.963Z,0.00
2017-09-29T04:49:13.970Z,0.00
2017-09-29T04:50:13.974Z,4.00
2017-09-29T04:51:13.973Z,4.00
2017-09-29T04:52:13.977Z,0.00
2017-09-29T04:53:13.991Z,4.00
2017-09-29T04:54:13.994Z,4.00
2017-09-29T04:55:13.994Z,4.00
2017-09-29T04:56:14.001Z,8.00
2017-09-29T04:57:14.004Z,8.00
2017-09-29T04:58:14.007Z,8.00
2017-09-29T04:59:14.032Z,8.00
2017-09-29T05:00:14.025Z,12.00
2017-09-29T05:01:14.025Z,12.00
2017-09-29T05:02:14.034Z,12.00
2017-09-29T05:03:14.035Z,16.00
2017-09-29T05:04:14.041Z,16.00
2017-09-29T05:05:14.045Z,20.00
2017-09-29T05:06:14.054Z,24.00
2017-09-29T05:07:14.057Z,28.00
2017-09-29T05:08:14.062Z,32.00
2017-09-29T05:09:14.063Z,36.00
2017-09-29T05:10:14.067Z,36.00
2017-09-29T05:11:14.072Z,44.00
2017-09-29T05:12:14.082Z,48.00
2017-09-29T05:13:14.084Z,52.00
2017-09-29T05:14:14.097Z,56.00
2017-09-29T05:15:14.094Z,64.00
2017-09-29T05:16:14.099Z,68.00
2017-09-29T05:17:14.109Z,72.00
2017-09-29T05:18:14.104Z,80.00
2017-09-29T05:19:14.118Z,88.00
2017-09-29T05:20:14.116Z,92.00
2017-09-29T05:21:14.124Z,100.00
2017-09-29T05:22:14.133Z,104.00
2017-09-29T05:23:16.698Z,108.00
2017-09-29T05:24:14.139Z,116.00
2017-09-29T05:25:14.143Z,128.00
2017-09-29T05:26:14.142Z,136.00
2017-09-29T05:27:14.153Z,140.00
2017-09-29T05:28:14.155Z,148.00
2017-09-29T05:29:14.161Z,156.00
2017-09-29T05:30:14.158Z,164.00
2017-09-29T05:31:14.169Z,172.00
2017-09-29T05:32:14.179Z,184.00
2017-09-29T05:33:14.176Z,192.00
2017-09-29T05:34:14.182Z,204.00
2017-09-29T05:35:14.185Z,220.00
2017-09-29T05:36:14.198Z,236.00
2017-09-29T05:37:14.196Z,252.00
2017-09-29T05:38:14.220Z,264.00
2017-09-29T05:39:14.207Z,276.00
2017-09-29T05:40:14.212Z,284.00
2017-09-29T05:41:14.215Z,296.00
2017-09-29T05:42:14.221Z,296.00
2017-09-29T05:43:14.227Z,304.00
2017-09-29T05:44:14.232Z,320.00
2017-09-29T05:45:14.240Z,332.00
2017-09-29T05:46:14.263Z,344.00
2017-09-29T05:47:14.243Z,356.00
2017-09-29T05:48:14.308Z,368.00
2017-09-29T05:49:14.252Z,376.00
2017-09-29T05:50:14.261Z,384.00
2017-09-29T05:51:14.262Z,396.00
2017-09-29T05:52:14.270Z,408.00
2017-09-29T05:53:14.280Z,416.00
2017-09-29T05:54:14.273Z,424.00
2017-09-29T05:55:14.283Z,436.00
2017-09-29T05:56:14.284Z,448.00
2017-09-29T05:57:14.294Z,456.00
2017-09-29T05:58:14.296Z,468.00
2017-09-29T05:59:14.299Z,480.00
2017-09-29T06:00:14.303Z,488.00
2017-09-29T06:01:14.317Z,504.00
2017-09-29T06:02:14.350Z,516.00
2017-09-29T06:03:14.328Z,528.00
2017-09-29T06:04:14.328Z,540.00
2017-09-29T06:05:14.328Z,552.00
2017-09-29T06:06:14.334Z,568.00
2017-09-29T06:07:17.190Z,588.00
2017-09-29T06:08:14.345Z,604.00
2017-09-29T06:09:14.348Z,624.00
2017-09-29T06:10:14.350Z,640.00
2017-09-29T06:11:14.364Z,656.00
2017-09-29T06:12:14.376Z,672.00
2017-09-29T06:13:14.367Z,688.00
2017-09-29T06:14:14.373Z,712.00
2017-09-29T06:15:14.384Z,728.00
2017-09-29T06:16:14.385Z,752.00
2017-09-29T06:17:14.390Z,768.00
2017-09-29T06:18:14.392Z,788.00
2017-09-29T06:19:14.401Z,808.00
2017-09-29T06:20:14.405Z,824.00
2017-09-29T06:21:14.405Z,844.00
2017-09-29T06:22:14.415Z,860.00
2017-09-29T06:23:14.414Z,864.00
2017-09-29T06:24:14.422Z,844.00
2017-09-29T06:25:14.428Z,896.00
2017-09-29T06:26:14.430Z,916.00
2017-09-29T06:27:14.435Z,936.00
2017-09-29T06:28:14.438Z,948.00
2017-09-29T06:29:14.447Z,960.00
2017-09-29T06:30:14.451Z,980.00
2017-09-29T06:31:14.457Z,1000.00
2017-09-29T06:32:14.469Z,1020.00
2017-09-29T06:33:14.465Z,1036.00
2017-09-29T06:34:14.474Z,1056.00
2017-09-29T06:35:14.479Z,1072.00
2017-09-29T06:36:14.482Z,1092.00
2017-09-29T06:37:14.488Z,1104.00
2017-09-29T06:38:14.490Z,1128.00
2017-09-29T06:39:14.497Z,1144.00
2017-09-29T06:40:14.509Z,1168.00
2017-09-29T06:41:14.509Z,1192.00
2017-09-29T06:42:14.515Z,1220.00
2017-09-29T06:43:14.523Z,1260.00
2017-09-29T06:44:14.524Z,1288.00
2017-09-29T06:45:14.527Z,1296.00
2017-09-29T06:46:14.532Z,1300.00
2017-09-29T06:47:14.543Z,1344.00
2017-09-29T06:48:14.539Z,1320.00
2017-09-29T06:49:14.546Z,1324.00
2017-09-29T06:50:14.546Z,1324.00
2017-09-29T06:51:14.554Z,1336.00
2017-09-29T06:52:14.561Z,1344.00
2017-09-29T06:53:14.573Z,1364.00
2017-09-29T06:54:14.572Z,1384.00
2017-09-29T06:55:14.581Z,1404.00
2017-09-29T06:56:14.583Z,1428.00
2017-09-29T06:57:14.590Z,1444.00
2017-09-29T06:58:14.598Z,1460.00
2017-09-29T06:59:14.598Z,1480.00
2017-09-29T07:00:14.602Z,1488.00
2017-09-29T07:01:14.622Z,1504.00
2017-09-29T07:02:14.617Z,1524.00
2017-09-29T07:03:14.618Z,1536.00
2017-09-29T07:04:14.629Z,1572.00
2017-09-29T07:05:14.631Z,1588.00
2017-09-29T07:06:14.634Z,1600.00
2017-09-29T07:07:14.639Z,1604.00
2017-09-29T07:08:14.645Z,1620.00
2017-09-29T07:09:14.646Z,1640.00
2017-09-29T07:10:14.656Z,1664.00
2017-09-29T07:11:14.659Z,1712.00
2017-09-29T07:12:14.665Z,1668.00
2017-09-29T07:13:14.674Z,1676.00
2017-09-29T07:14:14.677Z,1700.00
2017-09-29T07:15:14.682Z,1700.00
2017-09-29T07:16:14.688Z,1700.00
2017-09-29T07:17:14.696Z,1704.00
2017-09-29T07:18:14.698Z,1704.00
2017-09-29T07:19:14.701Z,1712.00
2017-09-29T07:20:14.706Z,1716.00
2017-09-29T07:21:14.718Z,1744.00
2017-09-29T07:22:14.717Z,1760.00
2017-09-29T07:23:14.726Z,1776.00
2017-09-29T07:24:14.729Z,1796.00
2017-09-29T07:25:14.733Z,1812.00
2017-09-29T07:26:14.741Z,1828.00
2017-09-29T07:27:14.747Z,1848.00
2017-09-29T07:28:14.749Z,1840.00
2017-09-29T07:29:14.759Z,1844.00
2017-09-29T07:30:14.768Z,1884.00
2017-09-29T07:31:14.767Z,1888.00
2017-09-29T07:32:14.779Z,1884.00
2017-09-29T07:33:14.776Z,1916.00
2017-09-29T07:34:14.783Z,1948.00
2017-09-29T07:35:14.788Z,1952.00
2017-09-29T07:36:14.797Z,1920.00
2017-09-29T07:37:14.804Z,1920.00
2017-09-29T07:38:14.809Z,1972.00
2017-09-29T07:39:14.808Z,1984.00
2017-09-29T07:40:14.816Z,1960.00
2017-09-29T07:41:14.825Z,1984.00
2017-09-29T07:42:14.833Z,2004.00
2017-09-29T07:43:14.834Z,2036.00
2017-09-29T07:44:14.837Z,2060.00
2017-09-29T07:45:14.849Z,2064.00
2017-09-29T07:46:14.849Z,2076.00
2017-09-29T07:47:14.859Z,2072.00
2017-09-29T07:48:14.872Z,2136.00
2017-09-29T07:49:14.878Z,2164.00
2017-09-29T07:50:14.872Z,2184.00
2017-09-29T07:51:14.882Z,2204.00
2017-09-29T07:52:14.884Z,2228.00
2017-09-29T07:53:14.893Z,2248.00
2017-09-29T07:54:14.898Z,2260.00
2017-09-29T07:55:14.900Z,2272.00
2017-09-29T07:56:14.906Z,2292.00
2017-09-29T07:57:14.915Z,2312.00
2017-09-29T07:58:14.923Z,2312.00
2017-09-29T07:59:14.925Z,2304.00
2017-09-29T08:00:14.933Z,2308.00
2017-09-29T08:01:14.939Z,2308.00
2017-09-29T08:02:14.942Z,2308.00
2017-09-29T08:03:14.950Z,2328.00
2017-09-29T08:04:14.954Z,2340.00
2017-09-29T08:05:14.957Z,2324.00
2017-09-29T08:06:14.966Z,2372.00
2017-09-29T08:07:15.045Z,2392.00
2017-09-29T08:08:14.982Z,2360.00
2017-09-29T08:09:14.983Z,2348.00
2017-09-29T08:10:14.989Z,2300.00
2017-09-29T08:11:14.997Z,2356.00
2017-09-29T08:12:15.001Z,2392.00
2017-09-29T08:13:15.007Z,2456.00
2017-09-29T08:14:15.016Z,2484.00
2017-09-29T08:15:15.023Z,2500.00
2017-09-29T08:16:15.025Z,2516.00
2017-09-29T08:17:15.032Z,2544.00
2017-09-29T08:18:15.036Z,2560.00
2017-09-29T08:19:15.047Z,2600.00
2017-09-29T08:20:15.087Z,2596.00
2017-09-29T08:21:15.057Z,2548.00
2017-09-29T08:22:15.061Z,2584.00
2017-09-29T08:23:15.066Z,2636.00
2017-09-29T08:24:15.074Z,2620.00
2017-09-29T08:25:15.085Z,2656.00
2017-09-29T08:26:15.305Z,2728.00
2017-09-29T08:27:15.091Z,2760.00
2017-09-29T08:28:15.097Z,2696.00
2017-09-29T08:29:15.106Z,2680.00
2017-09-29T08:30:15.111Z,2740.00
2017-09-29T08:31:15.116Z,2704.00
2017-09-29T08:32:15.126Z,2676.00
2017-09-29T08:33:15.125Z,2732.00
2017-09-29T08:34:15.134Z,2760.00
2017-09-29T08:35:15.140Z,2740.00
2017-09-29T08:36:15.154Z,2760.00
2017-09-29T08:37:15.149Z,2812.00
2017-09-29T08:38:15.155Z,2828.00
2017-09-29T08:39:15.164Z,2868.00
2017-09-29T08:40:15.182Z,2960.00
2017-09-29T08:41:15.175Z,2988.00
2017-09-29T08:42:16.450Z,3036.00
2017-09-29T08:43:15.191Z,3084.00
2017-09-29T08:44:15.199Z,3112.00
2017-09-29T08:45:15.203Z,3268.00
2017-09-29T08:46:15.209Z,3224.00
2017-09-29T08:47:15.218Z,3228.00
2017-09-29T08:48:15.223Z,3228.00
2017-09-29T08:49:15.231Z,3184.00
2017-09-29T08:50:15.233Z,3140.00
2017-09-29T08:51:15.242Z,3116.00
2017-09-29T08:52:15.247Z,3040.00
2017-09-29T08:53:15.257Z,3108.00
2017-09-29T08:54:15.257Z,3204.00
2017-09-29T08:55:15.266Z,3224.00
2017-09-29T08:56:15.273Z,3188.00
2017-09-29T08:57:15.281Z,3172.00
2017-09-29T08:58:15.289Z,3064.00
2017-09-29T08:59:15.289Z,3128.00
2017-09-29T09:00:15.295Z,3236.00
2017-09-29T09:01:15.315Z,3224.00
2017-09-29T09:02:15.313Z,3176.00
2017-09-29T09:03:15.318Z,3692.00
2017-09-29T09:04:15.323Z,3800.00
2017-09-29T09:05:15.333Z,3556.00
2017-09-29T09:06:15.342Z,3512.00
2017-09-29T09:07:15.340Z,3528.00
2017-09-29T09:08:15.357Z,3588.00
2017-09-29T09:09:15.357Z,3884.00
2017-09-29T09:10:15.368Z,3396.00
2017-09-29T09:11:15.373Z,3208.00
2017-09-29T09:12:15.373Z,3180.00
2017-09-29T09:13:15.380Z,3032.00
2017-09-29T09:14:15.389Z,2936.00
2017-09-29T09:15:15.395Z,2956.00
2017-09-29T09:16:15.399Z,3040.00
2017-09-29T09:17:15.409Z,3468.00
2017-09-29T09:18:15.416Z,3828.00
2017-09-29T09:19:15.423Z,3572.00
2017-09-29T09:20:15.425Z,4388.00
2017-09-29T09:21:15.441Z,3616.00
2017-09-29T09:22:15.440Z,3576.00
2017-09-29T09:23:15.456Z,3112.00
2017-09-29T09:24:15.455Z,2872.00
2017-09-29T09:25:15.463Z,2772.00
2017-09-29T09:26:15.474Z,2704.00
2017-09-29T09:27:15.475Z,2684.00
2017-09-29T09:28:15.483Z,2656.00
2017-09-29T09:29:15.491Z,2724.00
2017-09-29T09:30:15.757Z,2912.00
2017-09-29T09:31:15.504Z,3076.00
2017-09-29T09:32:15.506Z,3440.00
2017-09-29T09:33:15.516Z,3828.00
2017-09-29T09:34:15.523Z,3716.00
2017-09-29T09:35:15.530Z,3920.00
2017-09-29T09:36:15.538Z,3836.00
2017-09-29T09:37:15.543Z,3232.00
2017-09-29T09:38:15.549Z,2884.00
2017-09-29T09:39:15.554Z,3200.00
2017-09-29T09:40:15.567Z,3844.00
2017-09-29T09:41:15.573Z,3264.00
2017-09-29T09:42:15.611Z,3428.00
2017-09-29T09:43:15.588Z,2648.00
2017-09-29T09:44:15.590Z,2532.00
2017-09-29T09:45:15.604Z,2752.00
2017-09-29T09:46:15.606Z,2512.00
2017-09-29T09:47:15.616Z,2624.00
2017-09-29T09:48:15.623Z,2692.00
2017-09-29T09:49:15.632Z,2356.00
2017-09-29T09:50:15.642Z,2308.00
2017-09-29T09:51:15.646Z,2324.00
2017-09-29T09:52:15.654Z,2512.00
2017-09-29T09:53:15.665Z,2968.00
2017-09-29T09:55:47.795Z,2460.00
2017-09-29T09:56:47.763Z,2484.00
2017-09-29T09:57:47.765Z,3136.00
2017-09-29T09:58:47.771Z,2708.00
2017-09-29T09:59:47.779Z,2532.00
2017-09-29T10:00:47.785Z,2512.00
2017-09-29T10:01:47.797Z,2428.00
2017-09-29T10:02:47.812Z,2552.00
2017-09-29T10:03:47.811Z,2540.00
2017-09-29T10:04:47.817Z,3200.00
2017-09-29T10:05:47.930Z,2788.00
2017-09-29T10:06:47.829Z,3300.00
2017-09-29T10:07:47.850Z,2780.00
2017-09-29T10:08:47.865Z,2692.00
2017-09-29T10:09:47.851Z,2668.00
2017-09-29T10:10:47.863Z,2676.00
2017-09-29T10:11:47.865Z,2832.00
2017-09-29T10:12:47.876Z,2736.00
2017-09-29T10:13:47.888Z,2684.00
2017-09-29T10:14:47.889Z,2712.00
2017-09-29T10:15:47.896Z,2860.00
2017-09-29T10:16:47.904Z,3208.00
2017-09-29T10:17:47.912Z,2840.00
2017-09-29T10:18:47.923Z,2908.00
2017-09-29T10:19:47.927Z,2908.00
2017-09-29T10:20:47.935Z,2936.00
2017-09-29T10:21:47.941Z,2852.00
2017-09-29T10:22:47.954Z,2944.00
2017-09-29T10:23:47.956Z,3160.00
2017-09-29T10:24:47.968Z,3228.00
2017-09-29T10:25:47.972Z,3688.00
2017-09-29T10:26:47.985Z,3348.00
2017-09-29T10:27:47.985Z,3268.00
2017-09-29T10:28:47.995Z,3072.00
2017-09-29T10:29:48.005Z,2940.00
2017-09-29T10:30:48.012Z,2964.00
2017-09-29T10:31:48.021Z,3024.00
2017-09-29T10:32:48.033Z,3504.00
2017-09-29T10:33:48.037Z,3192.00
2017-09-29T10:34:48.039Z,2840.00
2017-09-29T10:35:48.052Z,2896.00
2017-09-29T10:36:48.206Z,2960.00
2017-09-29T10:37:48.070Z,3352.00
2017-09-29T10:38:48.075Z,3124.00
2017-09-29T10:39:48.096Z,3152.00
2017-09-29T10:40:48.101Z,3056.00
2017-09-29T10:41:48.107Z,3264.00
2017-09-29T10:42:48.101Z,3400.00
2017-09-29T10:43:48.112Z,3372.00
2017-09-29T10:44:48.118Z,3320.00
2017-09-29T10:45:48.129Z,3000.00
2017-09-29T10:46:48.137Z,3548.00
2017-09-29T10:47:48.151Z,3492.00
2017-09-29T10:48:48.158Z,3184.00
2017-09-29T10:49:48.160Z,3136.00
2017-09-29T10:50:48.169Z,3260.00
2017-09-29T10:51:48.176Z,3264.00
2017-09-29T10:52:48.191Z,3332.00
2017-09-29T10:53:48.193Z,3172.00
2017-09-29T10:54:48.202Z,2696.00
2017-09-29T10:55:48.208Z,3124.00
2017-09-29T10:56:48.214Z,2640.00
2017-09-29T10:57:48.227Z,2788.00
2017-09-29T10:58:48.230Z,2676.00
2017-09-29T10:59:48.249Z,2840.00
2017-09-29T11:00:48.249Z,2800.00
2017-09-29T11:01:48.256Z,2672.00
2017-09-29T11:02:48.269Z,2572.00
2017-09-29T11:03:48.279Z,2600.00
2017-09-29T11:04:48.286Z,2972.00
2017-09-29T11:05:48.294Z,2952.00
2017-09-29T11:06:48.295Z,2876.00
2017-09-29T11:07:48.314Z,2964.00
2017-09-29T11:08:48.318Z,2736.00
2017-09-29T11:09:48.325Z,2416.00
2017-09-29T11:10:48.334Z,2472.00
2017-09-29T11:11:48.340Z,2532.00
2017-09-29T11:12:48.355Z,2556.00
2017-09-29T11:13:48.354Z,2528.00
2017-09-29T11:14:48.388Z,2656.00
2017-09-29T11:15:48.375Z,2676.00
2017-09-29T11:16:48.385Z,2668.00
2017-09-29T11:17:48.389Z,2768.00
2017-09-29T11:18:48.400Z,2812.00
2017-09-29T11:19:48.410Z,2796.00
2017-09-29T11:20:48.415Z,2820.00
2017-09-29T11:21:48.426Z,2816.00
2017-09-29T11:22:48.432Z,2828.00
2017-09-29T11:23:48.444Z,2832.00
2017-09-29T11:24:48.456Z,2828.00
2017-09-29T11:25:48.456Z,2816.00
2017-09-29T11:26:48.466Z,2828.00
2017-09-29T11:27:48.782Z,2832.00
2017-09-29T11:28:48.484Z,2840.00
2017-09-29T11:29:48.499Z,2840.00
2017-09-29T11:30:48.503Z,2832.00
2017-09-29T11:31:48.506Z,2812.00
2017-09-29T11:32:48.555Z,2756.00
2017-09-29T11:33:48.521Z,2820.00
2017-09-29T11:34:48.532Z,2824.00
2017-09-29T11:35:48.542Z,2824.00
2017-09-29T11:36:48.556Z,2824.00
2017-09-29T11:37:48.580Z,2816.00
2017-09-29T11:38:48.662Z,2812.00
2017-09-29T11:39:48.573Z,2836.00
2017-09-29T11:40:48.584Z,2832.00
2017-09-29T11:41:48.965Z,2808.00
2017-09-29T11:42:48.602Z,2792.00
2017-09-29T11:43:48.615Z,2744.00
2017-09-29T11:44:48.621Z,2672.00
2017-09-29T11:45:48.636Z,2724.00
2017-09-29T11:46:48.636Z,2756.00
2017-09-29T11:47:48.646Z,2764.00
2017-09-29T11:48:48.655Z,2720.00
2017-09-29T11:49:48.664Z,2704.00
2017-09-29T11:50:48.686Z,2684.00
2017-09-29T11:51:48.681Z,2700.00
2017-09-29T11:52:48.690Z,2720.00
2017-09-29T11:53:48.699Z,2700.00
2017-09-29T11:54:48.717Z,2596.00
2017-09-29T11:55:48.718Z,2692.00
2017-09-29T11:56:48.724Z,2684.00
2017-09-29T11:57:48.735Z,2708.00
2017-09-29T11:58:48.743Z,2736.00
2017-09-29T11:59:48.755Z,2760.00
2017-09-29T12:00:48.769Z,2776.00
2017-09-29T12:01:48.772Z,2796.00
2017-09-29T12:02:48.781Z,2808.00
2017-09-29T12:03:48.789Z,2788.00
2017-09-29T12:04:48.796Z,2812.00
2017-09-29T12:05:48.805Z,2772.00
2017-09-29T12:06:48.823Z,2720.00
2017-09-29T12:07:48.826Z,2724.00
2017-09-29T12:08:48.852Z,2752.00
2017-09-29T12:09:48.856Z,2756.00
2017-09-29T12:10:48.850Z,2800.00
2017-09-29T12:11:48.877Z,2804.00
2017-09-29T12:12:48.868Z,2840.00
2017-09-29T12:13:48.886Z,2888.00
2017-09-29T12:14:48.897Z,2888.00
2017-09-29T12:15:48.897Z,2840.00
2017-09-29T12:16:48.917Z,2892.00
2017-09-29T12:17:48.915Z,2880.00
2017-09-29T12:18:48.925Z,2904.00
2017-09-29T12:19:48.939Z,2912.00
2017-09-29T12:20:48.946Z,2896.00
2017-09-29T12:21:48.958Z,2880.00
2017-09-29T12:22:48.969Z,2860.00
2017-09-29T12:23:48.979Z,2812.00
2017-09-29T12:24:48.981Z,2704.00
2017-09-29T12:25:48.995Z,2648.00
2017-09-29T12:26:49.003Z,2604.00
2017-09-29T12:27:49.021Z,2608.00
2017-09-29T12:28:49.019Z,2648.00
2017-09-29T12:29:49.027Z,2692.00
2017-09-29T12:30:49.044Z,2716.00
2017-09-29T12:31:49.053Z,2748.00
2017-09-29T12:32:49.062Z,2780.00
2017-09-29T12:35:20.692Z,2728.00
2017-09-29T12:36:20.671Z,2756.00
2017-09-29T12:37:20.682Z,2784.00
2017-09-29T12:38:20.687Z,2792.00
2017-09-29T12:39:20.699Z,2796.00
2017-09-29T12:40:20.708Z,2828.00
2017-09-29T12:41:20.717Z,2844.00